Bei Facebook empfehlenBei Twitter postenGoogle plusPinterest

Das Wetter im Erzgebirge am 16.09.2015

Wetter und Klima am 16.09.2015 Holzhau im Erzgebirge (630m ü.NN)
Letzte gemessene Temperatur und Uhrzeit der Messung23:45:00 Uhr16.20 °C
Temperatur (Maximum / Höchstwert) und Uhrzeit der Messung13:30:00 Uhr22.60 °C
Temperatur (Minimum / Tiefstwert) und Uhrzeit der Messung03:30:006.90 °C
Errechneter Absolutwert der Temperaturschwankungen zwischen Tmin und Tmax des Tages15.70 K
Errechnete Tagesmitteltemperatur15.49792 °C
Gesamt - Niederschlag des Tages (in flüssiger Form)0.00 Liter / m²
Luftdruck (Maximum / Höchstwert) und Zeitpunkt der Messung00:30:00 Uhr1006.70 hPa
Luftdruck (Minimum / Tiefstwert) und Zeitpunkt der Messung23:45:00 Uhr999.70 hPa
Errechneter Absolutwert der Luftdruckschwankungen des Tages7.00 hPa
Höchste gemessene Windgeschwindigkeit und Uhrzeit der Messung12:15:00 Uhr12.96 km/h
Errechnete Windhäufigkeit in Relation zu den Messwerten des Tages22.91667 %
Niedrigste Windkühle (Windchill) und Zeitpunkt der Messung03:30:00 Uhr6.90 °C
Taupunkt (Maximum / Höchstwert) und Uhrzeit der Messung12:45:00 Uhr14.90 °C
Taupunkt (Minimum / Tiefstwert) und Uhrzeit der Messung03:30:005.40 °C
Anzahl der automatisch eingelesenen Messwerte 96

Detaillierte Wetter- und Klima- Messwerte für den 16.09.2015 in Holzhau im Erzgebirge (630m ü.NN)
ZeitTemperaturLuftdruckRel. LuftfeuchteWindWindrichtungWindchillTaupunktNiederschlag l/m²
23:45:0016.20 °C999.70 hPa79.00 %12.60 °C 
23:30:0016.10 °C999.80 hPa79.00 %12.50 °C 
23:15:0016.40 °C999.80 hPa78.00 %3.96 km/hOSO16.40 °C12.60 °C 
23:00:0016.40 °C1000.10 hPa78.00 %12.60 °C 
22:45:0016.80 °C1000.10 hPa78.00 %12.90 °C 
22:30:0016.90 °C1000.00 hPa78.00 %13.00 °C 
22:15:0017.10 °C1000.00 hPa78.00 %13.20 °C 
22:00:0017.30 °C1000.00 hPa78.00 %13.40 °C 
21:45:0017.60 °C1000.20 hPa78.00 %5.40 km/hOSO18.30 °C13.70 °C 
21:30:0017.80 °C1000.20 hPa78.00 %13.90 °C 
21:15:0017.70 °C1000.30 hPa78.00 %13.80 °C 
21:00:0017.60 °C1000.40 hPa79.00 %13.90 °C 
20:45:0017.40 °C1000.20 hPa80.00 %13.90 °C 
20:30:0017.20 °C1000.50 hPa80.00 %6.48 km/hOSO17.70 °C13.70 °C 
20:15:0017.40 °C1000.40 hPa79.00 %2.88 km/hSO17.40 °C13.70 °C 
20:00:0017.30 °C1000.70 hPa80.00 %5.40 km/hOSO18.00 °C13.80 °C 
19:45:0017.30 °C1000.60 hPa79.00 %2.16 km/hOSO17.30 °C13.60 °C 
19:30:0017.50 °C1000.70 hPa78.00 %13.60 °C 
19:15:0017.90 °C1000.80 hPa77.00 %13.80 °C 
19:00:0018.10 °C1000.70 hPa76.00 %13.80 °C 
18:45:0018.40 °C1000.50 hPa76.00 %14.10 °C 
18:30:0018.60 °C1000.50 hPa75.00 %14.10 °C 
18:15:0018.70 °C1000.60 hPa75.00 %14.20 °C 
18:00:0018.90 °C1000.80 hPa74.00 %14.20 °C 
17:45:0019.10 °C1000.90 hPa73.00 %14.10 °C 
17:30:0019.30 °C1001.40 hPa72.00 %14.10 °C 
17:15:0019.80 °C1001.40 hPa70.00 %14.20 °C 
17:00:0020.30 °C1001.80 hPa68.00 %14.20 °C 
16:45:0020.40 °C1001.90 hPa66.00 %13.80 °C 
16:30:0020.90 °C1001.80 hPa64.00 %13.80 °C 
16:15:0021.40 °C1001.90 hPa62.00 %13.80 °C 
16:00:0021.60 °C1001.90 hPa61.00 %13.80 °C 
15:45:0022.10 °C1001.80 hPa58.00 %4.68 km/hSSW22.10 °C13.50 °C 
15:30:0022.40 °C1001.90 hPa59.00 %2.52 km/hWSW22.40 °C14.00 °C 
15:15:0022.00 °C1002.00 hPa59.00 %13.60 °C 
15:00:0021.90 °C1001.60 hPa58.00 %13.30 °C 
14:45:0022.50 °C1001.40 hPa57.00 %13.60 °C 
14:30:0022.40 °C1001.70 hPa60.00 %7.92 km/hSSW23.60 °C14.30 °C 
14:15:0021.90 °C1001.50 hPa60.00 %2.16 km/hSSO21.90 °C13.80 °C 
14:00:0021.80 °C1001.50 hPa60.00 %13.70 °C 
13:45:0022.50 °C1001.50 hPa59.00 %14.10 °C 
13:30:0022.60 °C1001.60 hPa59.00 %7.92 km/hWSW23.80 °C14.20 °C 
13:15:0022.20 °C1001.70 hPa61.00 %2.88 km/hSO22.20 °C14.30 °C 
13:00:0021.60 °C1001.70 hPa62.00 %14.00 °C 
12:45:0021.30 °C1001.70 hPa67.00 %14.90 °C 
12:30:0020.30 °C1001.90 hPa67.00 %14.00 °C 
12:15:0019.90 °C1002.00 hPa68.00 %12.96 km/hOSO20.20 °C13.80 °C 
12:00:0019.20 °C1002.00 hPa70.00 %10.08 km/hSSW19.60 °C13.60 °C 
11:45:0018.70 °C1002.20 hPa71.00 %5.76 km/hSW19.50 °C13.30 °C 
11:30:0018.40 °C1002.40 hPa72.00 %13.30 °C 
11:15:0018.20 °C1002.50 hPa73.00 %13.30 °C 
11:00:0018.10 °C1002.50 hPa73.00 %13.20 °C 
10:45:0017.60 °C1002.70 hPa74.00 %2.16 km/hSO17.60 °C12.90 °C 
10:30:0017.50 °C1002.60 hPa73.00 %12.60 °C 
10:15:0016.90 °C1002.80 hPa72.00 %11.80 °C 
10:00:0016.50 °C1002.90 hPa72.00 %11.40 °C 
09:45:0016.10 °C1003.10 hPa73.00 %11.30 °C 
09:30:0015.60 °C1003.10 hPa73.00 %4.32 km/hWSW15.60 °C10.80 °C 
09:15:0014.90 °C1003.00 hPa74.00 %10.30 °C 
09:00:0014.60 °C1002.70 hPa74.00 %1.80 km/hONO14.60 °C10.00 °C 
08:45:0014.60 °C1002.60 hPa75.00 %10.20 °C 
08:30:0014.10 °C1002.60 hPa76.00 %9.90 °C 
08:15:0013.70 °C1002.60 hPa78.00 %7.20 km/hNO13.50 °C9.90 °C 
08:00:0013.30 °C1002.50 hPa80.00 %9.90 °C 
07:45:0012.90 °C1002.60 hPa81.00 %9.70 °C 
07:30:0012.30 °C1002.90 hPa83.00 %9.50 °C 
07:15:0011.60 °C1003.00 hPa84.00 %1.80 km/hONO11.60 °C9.00 °C 
07:00:0010.90 °C1003.30 hPa86.00 %8.70 °C 
06:45:0010.40 °C1003.40 hPa87.00 %2.52 km/hOSO10.40 °C8.30 °C 
06:30:009.80 °C1003.40 hPa87.00 %7.70 °C 
06:15:009.40 °C1003.40 hPa87.00 %7.30 °C 
06:00:009.70 °C1004.00 hPa87.00 %7.60 °C 
05:45:009.70 °C1004.40 hPa88.00 %7.80 °C 
05:30:009.80 °C1004.80 hPa88.00 %7.90 °C 
05:15:009.80 °C1004.70 hPa89.00 %8.10 °C 
05:00:009.40 °C1004.60 hPa90.00 %7.80 °C 
04:45:008.90 °C1004.70 hPa90.00 %2.16 km/hSO8.90 °C7.40 °C 
04:30:008.50 °C1004.80 hPa90.00 %7.00 °C 
04:15:008.10 °C1004.60 hPa90.00 %6.60 °C 
04:00:007.80 °C1004.70 hPa91.00 %6.40 °C 
03:45:007.10 °C1004.80 hPa90.00 %5.60 °C 
03:30:006.90 °C1005.00 hPa90.00 %5.40 °C 
03:15:007.20 °C1005.20 hPa89.00 %5.50 °C 
03:00:007.30 °C1005.00 hPa89.00 %5.60 °C 
02:45:007.50 °C1005.00 hPa89.00 %5.80 °C 
02:30:007.90 °C1005.00 hPa89.00 %6.20 °C 
02:15:007.90 °C1005.10 hPa88.00 %6.00 °C 
02:00:008.20 °C1005.50 hPa88.00 %6.30 °C 
01:45:008.50 °C1005.60 hPa88.00 %6.60 °C 
01:30:009.20 °C1006.00 hPa87.00 %7.20 °C 
01:15:009.90 °C1006.10 hPa88.00 %8.00 °C 
01:00:0010.70 °C1006.20 hPa88.00 %8.80 °C 
00:45:0011.10 °C1006.30 hPa88.00 %9.20 °C 
00:30:0011.10 °C1006.70 hPa88.00 %9.20 °C 
00:15:0011.00 °C1006.60 hPa89.00 %9.30 °C 
00:00:0010.50 °C1006.60 hPa88.00 %8.60 °C 

Permanenter Link zu dieser Seite: Wetter im Erzgebirge am 16.09.2015
Performance-Info: Die Erstellung der Seite / Statistik(en) / Tabelle(n) erforderte 5 Datenbankserver-Abfrage(n) und dauerte 100 Millisekunden. (Dieser Messwert ist von der Gesamt-Auslastung des Servers abhängig.)
Erzgebirge - Wetter | Erzgebirge - Wetter (Mobilgeräte) | Komplette Klimadatenbank